»·PEaware :: AMMO17 KEND-KEND

AMMO17 :: KEND-KEND

FLIGHT INFORMATION

Flight Status: Arrived
Operator: Unknown
More flights by this operator :: More flights under this callsign
Pilot: Erica D. (22207)
Aircraft: BEECH AIRCRAFT T-6A TEXAN
(TEX2)
More flights by this aircraft type
Origin: KEND Vance AFB
United States
Destination: KEND Vance AFB
United States
More flights between these airports :: More routes between these airports
Route: +DF NL
File this flight plan on PilotEdge
Remarks:
Altitude:
(Current/Filed)
0ft
Speed:
(Current/Filed)
0kts
Departed: 07-Oct-20 06:13 AM
Arrived: 07-Oct-20 07:00 AM
Distance/Time
Traveled:
0nm/0:47
Distance/Time
To Go:
Arrived

Flight Plot

Page will automatically refresh every two minutes.

Flight plan parsing failed; only flown route is shown


Map Options




Map Legend


Flown Route
Filed Route
Departure Airport
Arrival Airport
Navaid (VOR, NDB)
Fix

Horizontal Profiles

Position Reports

Time Latitude Longitude Heading Altitude Ground
Speed
07-Oct-20 06:09 36.346945 -97.910014 215 1279ft 0kts
07-Oct-20 06:10 36.346945 -97.910014 215 1279ft 0kts
07-Oct-20 06:11 36.346624 -97.911056 181 1279ft 0kts
07-Oct-20 06:12 36.316414 -97.909571 178 1789ft 194kts
07-Oct-20 06:13 36.277840 -97.882090 72 4818ft 202kts
07-Oct-20 06:14 36.334431 -97.874983 346 5021ft 241kts
07-Oct-20 06:15 36.400778 -97.897920 338 4946ft 251kts
07-Oct-20 06:16 36.469681 -97.907785 0 4995ft 253kts
07-Oct-20 06:18 36.552012 -97.902991 3 5059ft 254kts
07-Oct-20 06:18 36.611348 -97.896440 3 5053ft 254kts
07-Oct-20 06:19 36.682484 -97.887198 2 4603ft 249kts
07-Oct-20 06:20 36.736280 -97.915022 275 2341ft 216kts
07-Oct-20 06:21 36.738689 -97.987414 268 2320ft 209kts
07-Oct-20 06:22 36.760759 -98.051641 312 2024ft 214kts
07-Oct-20 06:23 36.811385 -98.073448 0 1881ft 214kts
07-Oct-20 06:24 36.820549 -98.125093 198 1815ft 166kts
07-Oct-20 06:25 36.783160 -98.121461 183 1763ft 112kts
07-Oct-20 06:26 36.753568 -98.122716 185 1440ft 101kts
07-Oct-20 06:27 36.722469 -98.120699 128 2258ft 153kts
07-Oct-20 06:28 36.757110 -98.107017 338 2081ft 141kts
07-Oct-20 06:29 36.743315 -98.123320 184 1202ft 79kts
07-Oct-20 06:30 36.714946 -98.106068 85 3192ft 178kts
07-Oct-20 06:31 36.722788 -98.038474 89 5744ft 218kts
07-Oct-20 06:32 36.729172 -97.953431 65 7290ft 256kts
07-Oct-20 06:33 36.778916 -97.894398 353 8110ft 252kts
07-Oct-20 06:34 36.747616 -97.910550 179 8037ft 249kts
07-Oct-20 06:35 36.742150 -97.925359 23 8083ft 242kts
07-Oct-20 06:36 36.793010 -97.899592 63 7717ft 171kts
07-Oct-20 06:37 36.784655 -97.875733 216 8338ft 203kts
07-Oct-20 06:38 36.782049 -97.911996 317 9867ft 187kts
07-Oct-20 06:39 36.730962 -97.926448 344 11346ft 118kts
07-Oct-20 06:40 36.771667 -97.896131 117 10261ft 245kts
07-Oct-20 06:41 36.706910 -97.894835 190 10468ft 206kts
07-Oct-20 06:42 36.678525 -97.834153 100 6580ft 244kts
07-Oct-20 06:43 36.630363 -97.800671 183 4720ft 232kts
07-Oct-20 06:44 36.566473 -97.800087 183 3176ft 228kts
07-Oct-20 06:45 36.514019 -97.832862 218 2363ft 210kts
07-Oct-20 06:46 36.476753 -97.885316 234 2310ft 202kts
07-Oct-20 06:47 36.428672 -97.908182 183 2353ft 204kts
07-Oct-20 06:48 36.371579 -97.910333 186 2323ft 205kts
07-Oct-20 06:49 36.342120 -97.892710 1 2307ft 168kts
07-Oct-20 06:50 36.369528 -97.848936 8 3080ft 201kts
07-Oct-20 06:51 36.428193 -97.847761 342 3018ft 206kts
07-Oct-20 06:52 36.421095 -97.904805 219 2341ft 198kts
07-Oct-20 06:53 36.366625 -97.910662 178 2363ft 204kts
07-Oct-20 06:54 36.346776 -97.891004 357 2368ft 162kts
07-Oct-20 06:55 36.357795 -97.909832 201 1547ft 104kts
07-Oct-20 06:56 36.326489 -97.911282 184 1707ft 167kts
07-Oct-20 06:57 36.345218 -97.892813 0 2276ft 144kts
07-Oct-20 06:58 36.343968 -97.910935 182 1282ft 76kts
07-Oct-20 06:59 36.333590 -97.910189 81 1291ft 0kts

Navigation Log

Ident Type
Flight plan parsing failed, navigation log unavailable